Kezdőlap
METAR-TAF:

METAR-TAF

Repülőterek :

Bejrút, Libanon

földrajzi szélesség: 33-49N, földrajzi hosszúság: 035-29E, magasság: 29 m

Jelenlegi meteorológiai megfigyelések

A jelentés 27 perccel ezelõtt készült, 14:00 UTC
Nyugat-délnyugati szél 8 kt
Hőmérséklet 29°C
Páratartalom 70%
Légköri nyomás 1006 hPa
Látótávolság: 7000 m
Kevés felhő 2600 lábon

METAR: OLBA 161400Z 24008KT 7000 FEW026 29/23 Q1006 NOSIG

Idő: 17:27 (14:27 UTC)

Előrejelzés

A jelentés 4 órával és 27 perccel ezelõtt készült, 10:00 UTC
Az előrejelzés 16-én 12 óra UTC és 17-én 18 óra UTC között érvényes
Nyugat-délnyugati szél 15 kt
Látótávolság: 8000 m
Szórványos felhőzet 2600 lábon
16-én 18 óra UTC és 17-én 06 óra UTC között ideiglenes
Látótávolság: 5000 m
Párásság

TAF: OLBA 161000Z 1612/1718 25015KT 8000 SCT026 TEMPO 1618/1706 5000 BR

Meteorológiai megfigyelések és előrejelzések több, mint 4000 repülőtéren (METAR és TAF jelentéseket).

A térképen piros és sárga pontok jelzik az elérhető meteorológiai állomásokat.

Mozgassa az egeret a pont fölött, hogy megjelenjen az állomás neve.

Azután kattintson az időjárási megfigyelések és előrejelzések megtekintéséhez.

A térkép megváltoztatása: kattintson a fekete keresztel jelölt zöld gombra ráközelítéshez, a vonallal jelölt zöld gombra távolításhoz, vagy a zöld nyilakra a szomszédos térképek eléréséhez.


METAR-TAF: